createdAt,value
2023-01-31T00:01:24.634Z,4.88
2023-01-31T00:03:54.885Z,4.88
2023-01-31T00:06:23.190Z,5.00
2023-01-31T00:08:50.841Z,4.30
2023-01-31T00:11:18.503Z,5.28
2023-01-31T00:13:45.579Z,5.25
2023-01-31T00:16:13.048Z,3.92
2023-01-31T00:18:40.141Z,4.40
2023-01-31T00:21:11.464Z,4.20
2023-01-31T00:23:39.171Z,4.05
2023-01-31T00:26:08.441Z,5.30
2023-01-31T00:28:35.938Z,5.15
2023-01-31T00:31:02.797Z,5.22
2023-01-31T00:33:29.953Z,5.75
2023-01-31T00:35:56.716Z,5.47
2023-01-31T00:38:23.436Z,4.85
2023-01-31T00:40:54.879Z,6.32
2023-01-31T00:43:21.627Z,4.70
2023-01-31T00:45:48.368Z,4.47
2023-01-31T00:48:15.267Z,4.20
2023-01-31T00:50:42.053Z,4.47
2023-01-31T00:53:35.119Z,4.57
2023-01-31T00:56:07.727Z,4.85
2023-01-31T00:58:37.842Z,4.43
2023-01-31T01:01:26.496Z,5.00
2023-01-31T01:03:53.971Z,4.95
2023-01-31T01:06:20.792Z,4.72
2023-01-31T01:08:48.154Z,4.90
2023-01-31T01:11:19.950Z,5.07
2023-01-31T01:13:47.152Z,4.47
2023-01-31T01:16:24.487Z,4.85
2023-01-31T01:18:51.541Z,5.03
2023-01-31T01:21:19.607Z,4.63
2023-01-31T01:23:47.519Z,5.30
2023-01-31T01:26:19.215Z,4.50
2023-01-31T01:28:46.280Z,4.40
2023-01-31T01:31:14.454Z,4.18
2023-01-31T01:33:41.198Z,5.00
2023-01-31T01:36:08.784Z,5.05
2023-01-31T01:38:36.463Z,4.68
2023-01-31T01:41:04.248Z,4.60
2023-01-31T01:43:41.922Z,5.32
2023-01-31T01:46:10.643Z,5.35
2023-01-31T01:48:37.463Z,4.57
2023-01-31T01:51:05.321Z,4.88
2023-01-31T01:53:32.461Z,4.60
2023-01-31T01:56:02.306Z,4.45
2023-01-31T01:58:47.301Z,5.13
2023-01-31T02:01:16.902Z,5.47
2023-01-31T02:03:47.787Z,4.80
2023-01-31T02:06:14.377Z,5.18
2023-01-31T02:08:42.372Z,5.45
2023-01-31T02:11:14.459Z,4.55
2023-01-31T02:13:41.756Z,5.22
2023-01-31T02:16:14.629Z,5.63
2023-01-31T02:18:42.363Z,5.18
2023-01-31T02:21:29.221Z,5.47
2023-01-31T02:23:55.800Z,5.32
2023-01-31T02:26:53.898Z,5.30
2023-01-31T02:29:20.889Z,4.60
2023-01-31T02:31:50.519Z,5.80
2023-01-31T02:34:36.029Z,5.05
2023-01-31T02:37:06.194Z,5.05
2023-01-31T02:39:53.100Z,5.40
2023-01-31T02:42:29.544Z,4.70
2023-01-31T02:45:04.756Z,4.95
2023-01-31T02:47:51.188Z,4.93
2023-01-31T02:50:26.686Z,5.75
2023-01-31T02:52:59.034Z,5.03
2023-01-31T02:55:54.363Z,5.68
2023-01-31T02:58:23.193Z,5.10
2023-01-31T03:00:49.818Z,5.13
2023-01-31T03:03:27.349Z,5.65
2023-01-31T03:05:57.977Z,4.85
2023-01-31T03:08:24.896Z,5.30
2023-01-31T03:11:03.110Z,5.55
2023-01-31T03:13:44.728Z,5.75
2023-01-31T03:16:50.405Z,6.63
2023-01-31T03:19:21.207Z,6.20
2023-01-31T03:21:55.508Z,4.95
2023-01-31T03:24:26.485Z,5.18
2023-01-31T03:26:55.633Z,5.85
2023-01-31T03:29:23.964Z,6.07
2023-01-31T03:31:57.733Z,5.97
2023-01-31T03:34:25.523Z,4.72
2023-01-31T03:37:15.604Z,5.72
2023-01-31T03:39:53.336Z,4.72
2023-01-31T03:42:24.068Z,5.35
2023-01-31T03:44:57.768Z,5.07
2023-01-31T03:47:30.596Z,5.82
2023-01-31T03:49:59.177Z,4.95
2023-01-31T03:52:29.462Z,4.80
2023-01-31T03:54:59.505Z,5.72
2023-01-31T03:57:32.573Z,5.65
2023-01-31T04:00:00.372Z,5.30
2023-01-31T04:02:32.605Z,5.00
2023-01-31T04:05:02.630Z,4.80
2023-01-31T04:07:29.744Z,4.45
2023-01-31T04:09:56.527Z,6.78
2023-01-31T04:12:23.313Z,5.05
2023-01-31T04:14:50.100Z,7.07
2023-01-31T04:17:16.936Z,5.03
2023-01-31T04:19:43.523Z,4.80
2023-01-31T04:22:10.555Z,5.55
2023-01-31T04:24:37.168Z,4.40
2023-01-31T04:27:03.805Z,4.75
2023-01-31T04:29:30.412Z,4.95
2023-01-31T04:31:57.251Z,4.78
2023-01-31T04:34:23.944Z,4.40
2023-01-31T04:36:50.610Z,4.50
2023-01-31T04:39:17.506Z,4.68
2023-01-31T04:41:44.342Z,4.75
2023-01-31T04:44:12.053Z,4.72
2023-01-31T04:46:38.777Z,4.60
2023-01-31T04:49:05.876Z,4.70
2023-01-31T04:51:32.876Z,4.13
2023-01-31T04:53:59.666Z,4.75
2023-01-31T04:56:26.644Z,5.22
2023-01-31T04:58:53.253Z,5.07
2023-01-31T05:01:19.980Z,4.35
2023-01-31T05:03:46.854Z,4.15
2023-01-31T05:06:13.455Z,5.40
2023-01-31T05:08:40.011Z,5.25
2023-01-31T05:11:07.602Z,4.57
2023-01-31T05:13:38.228Z,5.53
2023-01-31T05:16:08.690Z,4.85
2023-01-31T05:18:36.191Z,3.60
2023-01-31T05:21:03.342Z,5.63
2023-01-31T05:23:31.432Z,5.13
2023-01-31T05:25:58.096Z,4.35
2023-01-31T05:28:26.092Z,4.18
2023-01-31T05:30:53.343Z,3.83
2023-01-31T05:33:20.915Z,4.13
2023-01-31T05:35:48.143Z,3.75
2023-01-31T05:38:15.104Z,4.22
2023-01-31T05:40:41.758Z,4.32
2023-01-31T05:43:08.438Z,4.03
2023-01-31T05:45:34.936Z,3.58
2023-01-31T05:48:03.731Z,4.28
2023-01-31T05:50:31.084Z,4.18
2023-01-31T05:53:09.447Z,4.85
2023-01-31T05:55:36.370Z,4.20
2023-01-31T05:58:02.951Z,4.10
2023-01-31T06:00:29.915Z,3.85
2023-01-31T06:03:00.017Z,3.83
2023-01-31T06:05:27.282Z,4.40
2023-01-31T06:07:54.322Z,3.42
2023-01-31T06:10:21.299Z,4.75
2023-01-31T06:12:48.136Z,3.83
2023-01-31T06:15:15.054Z,4.15
2023-01-31T06:17:41.554Z,4.93
2023-01-31T06:20:08.601Z,4.50
2023-01-31T06:22:35.223Z,4.03
2023-01-31T06:25:01.936Z,5.05
2023-01-31T06:27:31.728Z,3.55
2023-01-31T06:29:59.264Z,4.03
2023-01-31T06:32:25.848Z,4.40
2023-01-31T06:34:52.347Z,3.90
2023-01-31T06:37:19.140Z,3.85
2023-01-31T06:39:45.712Z,3.67
2023-01-31T06:42:12.273Z,4.22
2023-01-31T06:44:39.731Z,4.00
2023-01-31T06:47:06.362Z,4.15
2023-01-31T06:49:33.093Z,3.80
2023-01-31T06:51:59.756Z,4.30
2023-01-31T06:54:30.521Z,3.72
2023-01-31T06:57:01.034Z,3.15
2023-01-31T06:59:29.426Z,3.92
2023-01-31T07:01:58.341Z,4.30
2023-01-31T07:04:25.056Z,3.28
2023-01-31T07:06:51.736Z,4.05
2023-01-31T07:09:18.361Z,4.13
2023-01-31T07:11:44.960Z,4.43
2023-01-31T07:14:11.563Z,4.75
2023-01-31T07:16:40.868Z,4.68
2023-01-31T07:19:07.668Z,3.47
2023-01-31T07:21:36.123Z,4.10
2023-01-31T07:24:03.225Z,5.65
2023-01-31T07:26:30.327Z,5.22
2023-01-31T07:28:56.971Z,4.53
2023-01-31T07:31:23.588Z,4.40
2023-01-31T07:33:50.341Z,4.60
2023-01-31T07:36:19.839Z,4.10
2023-01-31T07:38:46.631Z,4.97
2023-01-31T07:41:13.304Z,4.55
2023-01-31T07:43:40.005Z,4.20
2023-01-31T07:46:09.486Z,4.47
2023-01-31T07:48:37.699Z,5.30
2023-01-31T07:51:04.254Z,4.28
2023-01-31T07:53:32.096Z,5.07
2023-01-31T07:56:08.729Z,4.20
2023-01-31T07:58:36.291Z,4.70
2023-01-31T08:01:22.189Z,4.40
2023-01-31T08:03:49.237Z,4.70
2023-01-31T08:06:15.992Z,3.90
2023-01-31T08:09:27.782Z,3.92
2023-01-31T08:12:09.986Z,4.80
2023-01-31T08:14:36.842Z,4.78
2023-01-31T08:17:03.439Z,4.28
2023-01-31T08:19:30.595Z,4.82
2023-01-31T08:21:57.354Z,4.78
2023-01-31T08:24:23.943Z,3.88
2023-01-31T08:26:50.960Z,3.97
2023-01-31T08:29:18.087Z,4.50
2023-01-31T08:31:45.019Z,3.72
2023-01-31T08:34:11.883Z,4.07
2023-01-31T08:36:38.683Z,3.83
2023-01-31T08:39:05.883Z,3.75
2023-01-31T08:41:33.541Z,4.03
2023-01-31T08:44:03.546Z,4.70
2023-01-31T08:46:32.559Z,3.70
2023-01-31T08:49:00.260Z,3.33
2023-01-31T08:51:27.178Z,3.97
2023-01-31T08:53:54.110Z,3.15
2023-01-31T08:56:21.719Z,3.38
2023-01-31T08:58:48.555Z,5.40
2023-01-31T09:01:15.975Z,3.95
2023-01-31T09:03:45.020Z,3.88
2023-01-31T09:06:16.077Z,3.80
2023-01-31T09:08:42.927Z,3.13
2023-01-31T09:11:11.094Z,6.13
2023-01-31T09:13:37.877Z,4.07
2023-01-31T09:16:06.181Z,4.65
2023-01-31T09:18:33.607Z,4.80
2023-01-31T09:21:04.396Z,4.32
2023-01-31T09:23:31.304Z,4.60
2023-01-31T09:25:58.148Z,4.30
2023-01-31T09:28:24.919Z,4.22
2023-01-31T09:30:53.655Z,4.45
2023-01-31T09:33:21.318Z,4.13
2023-01-31T09:35:58.192Z,4.72
2023-01-31T09:38:24.951Z,4.90
2023-01-31T09:40:51.959Z,4.53
2023-01-31T09:43:21.265Z,4.75
2023-01-31T09:45:48.881Z,4.05
2023-01-31T09:48:20.534Z,4.63
2023-01-31T09:50:49.764Z,3.92
2023-01-31T09:53:21.948Z,3.65
2023-01-31T09:55:51.518Z,4.40
2023-01-31T09:58:31.925Z,4.20
2023-01-31T10:01:17.648Z,3.85
2023-01-31T10:04:07.294Z,5.15
2023-01-31T10:06:41.860Z,4.07
2023-01-31T10:09:11.511Z,4.28
2023-01-31T10:11:49.979Z,3.35
2023-01-31T10:14:35.349Z,3.42
2023-01-31T10:17:05.256Z,4.65
2023-01-31T10:19:52.151Z,3.60
2023-01-31T10:22:23.361Z,5.00
2023-01-31T10:24:54.408Z,3.72
2023-01-31T10:27:30.453Z,3.85
2023-01-31T10:29:58.183Z,3.45
2023-01-31T10:32:46.751Z,2.97
2023-01-31T10:35:18.330Z,3.33
2023-01-31T10:37:47.653Z,4.45
2023-01-31T10:40:16.327Z,3.60
2023-01-31T10:42:44.828Z,3.92
2023-01-31T10:45:18.297Z,3.97
2023-01-31T10:48:01.391Z,4.68
2023-01-31T10:50:46.549Z,4.80
2023-01-31T10:53:19.111Z,4.53
2023-01-31T10:55:52.719Z,3.95
2023-01-31T10:58:22.280Z,3.78
2023-01-31T11:00:49.550Z,4.03
2023-01-31T11:03:16.633Z,3.38
2023-01-31T11:05:50.948Z,3.50
2023-01-31T11:08:26.797Z,4.18
2023-01-31T11:10:54.695Z,4.18
2023-01-31T11:13:21.695Z,3.50
2023-01-31T11:15:49.184Z,3.65
2023-01-31T11:18:25.666Z,4.35
2023-01-31T11:20:52.537Z,3.22
2023-01-31T11:23:22.854Z,4.25
2023-01-31T11:25:50.854Z,4.05
2023-01-31T11:28:37.050Z,4.63
2023-01-31T11:31:05.530Z,3.90
2023-01-31T11:33:39.771Z,4.43
2023-01-31T11:36:14.012Z,3.55
2023-01-31T11:38:41.246Z,3.30
2023-01-31T11:41:26.849Z,3.08
2023-01-31T11:44:06.833Z,2.88
2023-01-31T11:46:40.731Z,5.70
2023-01-31T11:49:11.867Z,3.70
2023-01-31T11:51:40.499Z,3.45
2023-01-31T11:54:07.222Z,4.32
2023-01-31T11:56:36.344Z,3.25
2023-01-31T11:59:06.098Z,3.40
2023-01-31T12:01:33.245Z,3.03
2023-01-31T12:04:03.997Z,4.15
2023-01-31T12:06:33.654Z,4.05
2023-01-31T12:09:01.833Z,3.13
2023-01-31T12:11:30.314Z,3.97
2023-01-31T12:14:14.468Z,4.00
2023-01-31T12:16:41.902Z,3.60
2023-01-31T12:19:08.421Z,3.40
2023-01-31T12:21:40.286Z,3.45
2023-01-31T12:24:06.917Z,3.13
2023-01-31T12:26:49.194Z,2.97
2023-01-31T12:29:27.805Z,3.78
2023-01-31T12:32:01.394Z,3.92
2023-01-31T12:34:58.995Z,3.47
2023-01-31T12:37:26.792Z,4.05
2023-01-31T12:39:56.699Z,3.78
2023-01-31T12:42:33.075Z,3.78
2023-01-31T12:45:07.888Z,3.40
2023-01-31T12:47:34.720Z,3.83
2023-01-31T12:50:13.365Z,3.38
2023-01-31T12:52:40.516Z,4.25
2023-01-31T12:55:19.337Z,5.78
2023-01-31T12:58:04.965Z,4.13
2023-01-31T13:00:47.048Z,4.85
2023-01-31T13:03:22.809Z,3.75
2023-01-31T13:06:04.747Z,5.15
2023-01-31T13:08:33.061Z,3.80
2023-01-31T13:11:04.807Z,3.67
2023-01-31T13:13:43.878Z,3.63
2023-01-31T13:16:16.615Z,4.18
2023-01-31T13:18:43.898Z,5.00
2023-01-31T13:21:13.543Z,4.28
2023-01-31T13:23:43.310Z,4.30
2023-01-31T13:26:15.437Z,4.18
2023-01-31T13:28:44.769Z,3.65
2023-01-31T13:31:25.829Z,3.88
2023-01-31T13:33:55.957Z,4.13
2023-01-31T13:36:31.633Z,4.20
2023-01-31T13:39:00.413Z,3.67
2023-01-31T13:41:34.293Z,3.53
2023-01-31T13:44:01.614Z,3.87
2023-01-31T13:46:35.464Z,3.70
2023-01-31T13:49:28.349Z,3.77
2023-01-31T13:52:00.499Z,3.90
2023-01-31T13:54:33.726Z,3.85
2023-01-31T13:57:01.454Z,4.10
2023-01-31T13:59:29.688Z,3.40
2023-01-31T14:01:59.197Z,3.53
2023-01-31T14:04:27.551Z,3.75
2023-01-31T14:06:54.751Z,3.78
2023-01-31T14:09:43.718Z,3.72
2023-01-31T14:12:13.054Z,3.90
2023-01-31T14:14:41.676Z,3.58
2023-01-31T14:17:12.780Z,4.47
2023-01-31T14:19:42.436Z,4.80
2023-01-31T14:22:16.883Z,3.75
2023-01-31T14:24:46.615Z,3.55
2023-01-31T14:27:21.049Z,3.40
2023-01-31T14:29:49.051Z,4.18
2023-01-31T14:32:17.863Z,3.70
2023-01-31T14:34:50.820Z,4.22
2023-01-31T14:37:17.706Z,3.55
2023-01-31T14:40:03.698Z,4.15
2023-01-31T14:42:50.535Z,3.28
2023-01-31T14:45:36.036Z,4.03
2023-01-31T14:48:18.843Z,3.78
2023-01-31T14:50:48.555Z,3.72
2023-01-31T14:53:25.866Z,3.58
2023-01-31T14:55:58.521Z,4.25
2023-01-31T14:58:27.312Z,3.72
2023-01-31T15:01:02.567Z,3.85
2023-01-31T15:03:31.338Z,3.63
2023-01-31T15:06:15.911Z,3.80
2023-01-31T15:08:44.591Z,3.28
2023-01-31T15:11:41.471Z,4.13
2023-01-31T15:14:33.886Z,5.05
2023-01-31T15:17:04.066Z,3.55
2023-01-31T15:19:35.248Z,5.88
2023-01-31T15:22:07.456Z,4.07
2023-01-31T15:24:36.031Z,2.97
2023-01-31T15:27:07.039Z,4.47
2023-01-31T15:29:52.860Z,3.65
2023-01-31T15:32:23.988Z,3.60
2023-01-31T15:34:56.138Z,3.97
2023-01-31T15:37:25.498Z,4.43
2023-01-31T15:39:57.104Z,3.28
2023-01-31T15:42:30.859Z,3.13
2023-01-31T15:45:13.636Z,3.53
2023-01-31T15:47:43.988Z,3.35
2023-01-31T15:50:18.185Z,3.55
2023-01-31T15:52:44.998Z,3.20
2023-01-31T15:55:15.595Z,4.22
2023-01-31T15:57:55.296Z,4.15
2023-01-31T16:00:25.258Z,3.72
2023-01-31T16:03:01.130Z,3.35
2023-01-31T16:05:38.451Z,4.32
2023-01-31T16:08:06.625Z,3.55
2023-01-31T16:10:33.431Z,3.75
2023-01-31T16:13:01.363Z,3.20
2023-01-31T16:15:32.065Z,5.78
2023-01-31T16:18:02.829Z,4.13
2023-01-31T16:20:36.806Z,4.35
2023-01-31T16:23:03.973Z,3.95
2023-01-31T16:25:34.465Z,3.70
2023-01-31T16:28:03.743Z,3.90
2023-01-31T16:30:31.283Z,5.32
2023-01-31T16:32:57.925Z,7.55
2023-01-31T16:35:26.913Z,6.88
2023-01-31T16:38:04.036Z,4.85
2023-01-31T16:40:33.391Z,4.13
2023-01-31T16:43:18.982Z,4.93
2023-01-31T16:45:53.038Z,4.30
2023-01-31T16:48:20.848Z,4.32
2023-01-31T16:50:47.680Z,5.53
2023-01-31T16:53:18.926Z,4.30
2023-01-31T16:55:45.967Z,6.03
2023-01-31T16:58:13.215Z,5.65
2023-01-31T17:00:40.166Z,4.05
2023-01-31T17:03:13.630Z,4.88
2023-01-31T17:05:41.656Z,5.03
2023-01-31T17:08:18.535Z,4.85
2023-01-31T17:10:47.601Z,5.20
2023-01-31T17:13:20.721Z,5.40
2023-01-31T17:15:47.497Z,5.40
2023-01-31T17:18:14.173Z,5.22
2023-01-31T17:20:50.833Z,4.60
2023-01-31T17:23:18.141Z,4.63
2023-01-31T17:25:44.840Z,5.95
2023-01-31T17:28:11.456Z,4.38
2023-01-31T17:30:40.182Z,5.47
2023-01-31T17:33:07.443Z,5.07
2023-01-31T17:35:37.850Z,5.97
2023-01-31T17:38:04.851Z,5.75
2023-01-31T17:40:31.653Z,5.97
2023-01-31T17:42:59.756Z,4.88
2023-01-31T17:45:26.959Z,4.65
2023-01-31T17:47:53.789Z,4.38
2023-01-31T17:50:21.635Z,5.10
2023-01-31T17:52:48.772Z,4.32
2023-01-31T17:55:15.423Z,5.80
2023-01-31T17:57:41.960Z,5.75
2023-01-31T18:00:11.468Z,4.97
2023-01-31T18:02:38.471Z,4.90
2023-01-31T18:05:05.220Z,4.78
2023-01-31T18:07:31.840Z,5.20
2023-01-31T18:09:58.386Z,4.25
2023-01-31T18:12:25.008Z,4.82
2023-01-31T18:14:51.919Z,4.55
2023-01-31T18:17:20.372Z,4.65
2023-01-31T18:19:47.023Z,5.03
2023-01-31T18:22:14.489Z,6.05
2023-01-31T18:24:41.331Z,6.00
2023-01-31T18:27:07.977Z,5.65
2023-01-31T18:29:34.655Z,5.47
2023-01-31T18:32:03.413Z,5.20
2023-01-31T18:34:30.843Z,4.75
2023-01-31T18:36:57.607Z,5.50
2023-01-31T18:39:24.791Z,6.53
2023-01-31T18:41:51.722Z,6.43
2023-01-31T18:44:18.251Z,4.97
2023-01-31T18:46:44.937Z,5.45
2023-01-31T18:49:11.544Z,5.18
2023-01-31T18:51:38.396Z,5.22
2023-01-31T18:54:05.855Z,4.85
2023-01-31T18:56:32.684Z,4.30
2023-01-31T18:58:59.276Z,4.88
2023-01-31T19:01:26.481Z,5.40
2023-01-31T19:03:53.799Z,5.47
2023-01-31T19:06:24.277Z,5.53
2023-01-31T19:08:51.980Z,4.35
2023-01-31T19:11:19.200Z,4.68
2023-01-31T19:13:46.043Z,4.65
2023-01-31T19:16:14.026Z,4.32
2023-01-31T19:18:41.080Z,3.90
2023-01-31T19:21:21.700Z,4.93
2023-01-31T19:23:48.915Z,3.53
2023-01-31T19:26:16.235Z,3.97
2023-01-31T19:28:43.220Z,3.80
2023-01-31T19:31:11.215Z,4.75
2023-01-31T19:33:38.074Z,3.67
2023-01-31T19:36:12.213Z,4.35
2023-01-31T19:38:39.313Z,3.50
2023-01-31T19:41:09.782Z,3.72
2023-01-31T19:43:36.713Z,3.65
2023-01-31T19:46:03.705Z,4.05
2023-01-31T19:48:30.400Z,4.07
2023-01-31T19:50:57.454Z,3.70
2023-01-31T19:53:24.893Z,4.43
2023-01-31T19:55:51.841Z,4.00
2023-01-31T19:58:18.784Z,4.32
2023-01-31T20:00:45.437Z,2.97
2023-01-31T20:03:12.092Z,2.72
2023-01-31T20:05:40.774Z,2.63
2023-01-31T20:08:07.750Z,3.08
2023-01-31T20:10:35.343Z,3.42
2023-01-31T20:13:03.040Z,3.58
2023-01-31T20:15:30.184Z,2.65
2023-01-31T20:17:57.172Z,3.40
2023-01-31T20:20:24.138Z,2.50
2023-01-31T20:22:51.065Z,2.83
2023-01-31T20:25:17.739Z,2.80
2023-01-31T20:27:44.428Z,2.13
2023-01-31T20:30:11.817Z,2.50
2023-01-31T20:32:38.386Z,2.80
2023-01-31T20:35:05.230Z,2.97
2023-01-31T20:37:33.521Z,2.83
2023-01-31T20:40:00.198Z,2.60
2023-01-31T20:42:27.185Z,2.70
2023-01-31T20:44:53.790Z,2.85
2023-01-31T20:47:20.447Z,2.10
2023-01-31T20:49:47.215Z,2.50
2023-01-31T20:52:13.754Z,3.38
2023-01-31T20:54:40.300Z,2.80
2023-01-31T20:57:06.958Z,4.07
2023-01-31T20:59:33.750Z,7.03
2023-01-31T21:02:00.938Z,6.65
2023-01-31T21:04:27.925Z,5.38
2023-01-31T21:06:54.693Z,7.75
2023-01-31T21:09:23.186Z,7.68
2023-01-31T21:11:50.331Z,7.40
2023-01-31T21:14:16.823Z,6.28
2023-01-31T21:16:43.531Z,7.32
2023-01-31T21:19:10.153Z,6.55
2023-01-31T21:21:36.796Z,5.25
2023-01-31T21:24:04.473Z,4.28
2023-01-31T21:26:31.094Z,3.00
2023-01-31T21:28:59.910Z,3.40
2023-01-31T21:31:26.643Z,3.85
2023-01-31T21:33:53.539Z,3.72
2023-01-31T21:36:24.508Z,2.80
2023-01-31T21:38:52.840Z,3.58
2023-01-31T21:41:38.090Z,2.60
2023-01-31T21:44:04.986Z,3.85
2023-01-31T21:46:31.651Z,3.08
2023-01-31T21:48:59.530Z,3.03
2023-01-31T21:51:26.246Z,3.75
2023-01-31T21:53:53.603Z,3.90
2023-01-31T21:56:21.963Z,3.88
2023-01-31T21:58:49.252Z,4.35
2023-01-31T22:01:20.277Z,4.15
2023-01-31T22:03:48.767Z,3.33
2023-01-31T22:06:16.193Z,3.75
2023-01-31T22:08:43.161Z,3.50
2023-01-31T22:11:11.255Z,3.47
2023-01-31T22:13:39.838Z,3.72
2023-01-31T22:16:08.658Z,3.70
2023-01-31T22:18:35.707Z,3.42
2023-01-31T22:21:03.690Z,3.40
2023-01-31T22:23:30.672Z,3.00
2023-01-31T22:25:57.817Z,3.72
2023-01-31T22:28:24.807Z,3.67
2023-01-31T22:30:55.729Z,3.22
2023-01-31T22:33:22.589Z,3.03
2023-01-31T22:35:49.112Z,3.10
2023-01-31T22:38:15.822Z,3.20
2023-01-31T22:40:45.114Z,3.10
2023-01-31T22:43:12.569Z,3.00
2023-01-31T22:45:43.005Z,4.05
2023-01-31T22:48:09.728Z,3.58
2023-01-31T22:50:36.315Z,2.75
2023-01-31T22:53:02.956Z,4.10
2023-01-31T22:55:29.551Z,3.35
2023-01-31T22:57:58.370Z,3.50
2023-01-31T23:00:24.991Z,3.65
2023-01-31T23:02:51.670Z,3.50
2023-01-31T23:05:18.179Z,3.92
2023-01-31T23:07:44.838Z,3.55
2023-01-31T23:10:11.391Z,2.97
2023-01-31T23:12:42.602Z,3.50
2023-01-31T23:15:12.755Z,3.67
2023-01-31T23:17:39.964Z,3.50
2023-01-31T23:20:09.705Z,3.70
2023-01-31T23:22:37.154Z,4.35
2023-01-31T23:25:04.673Z,3.65
2023-01-31T23:27:31.332Z,3.67
2023-01-31T23:29:57.957Z,4.30
2023-01-31T23:32:24.828Z,3.92
2023-01-31T23:34:51.394Z,2.78
2023-01-31T23:37:18.107Z,3.65
2023-01-31T23:39:44.668Z,3.25
2023-01-31T23:42:11.255Z,3.65
2023-01-31T23:44:37.923Z,3.83
2023-01-31T23:47:04.483Z,3.45
2023-01-31T23:49:31.080Z,3.13
2023-01-31T23:51:57.649Z,3.38
2023-01-31T23:54:24.245Z,4.00
2023-01-31T23:56:51.284Z,3.35
2023-01-31T23:59:18.033Z,4.25
